createdAt,value
2023-03-24T00:01:02.950Z,10.00
2023-03-24T00:03:33.255Z,10.00
2023-03-24T00:06:03.248Z,9.90
2023-03-24T00:08:36.335Z,9.90
2023-03-24T00:11:07.172Z,9.90
2023-03-24T00:13:38.430Z,10.70
2023-03-24T00:16:08.176Z,9.90
2023-03-24T00:18:39.278Z,9.90
2023-03-24T00:21:11.400Z,9.90
2023-03-24T00:23:43.892Z,10.00
2023-03-24T00:26:15.414Z,10.00
2023-03-24T00:28:46.329Z,10.00
2023-03-24T00:31:16.083Z,9.90
2023-03-24T00:33:50.601Z,9.90
2023-03-24T00:36:21.201Z,10.00
2023-03-24T00:38:50.372Z,10.10
2023-03-24T00:41:20.350Z,10.10
2023-03-24T00:43:50.153Z,10.10
2023-03-24T00:46:29.205Z,10.10
2023-03-24T00:49:03.692Z,10.10
2023-03-24T00:51:34.552Z,10.10
2023-03-24T00:54:03.833Z,10.20
2023-03-24T00:56:34.667Z,10.20
2023-03-24T00:59:03.499Z,10.20
2023-03-24T01:01:35.713Z,10.30
2023-03-24T01:04:07.131Z,10.30
2023-03-24T01:06:37.776Z,10.20
2023-03-24T01:09:07.365Z,10.30
2023-03-24T01:11:40.209Z,10.20
2023-03-24T01:14:09.854Z,10.20
2023-03-24T01:16:38.587Z,10.30
2023-03-24T01:19:09.612Z,10.30
2023-03-24T01:21:38.962Z,10.30
2023-03-24T01:24:08.566Z,10.30
2023-03-24T01:26:37.184Z,10.50
2023-03-24T01:29:06.152Z,10.50
2023-03-24T01:31:34.805Z,10.50
2023-03-24T01:34:03.290Z,10.50
2023-03-24T01:36:33.167Z,10.50
2023-03-24T01:39:01.678Z,10.50
2023-03-24T01:41:35.592Z,10.60
2023-03-24T01:44:19.032Z,10.60
2023-03-24T01:46:47.417Z,10.60
2023-03-24T01:49:15.754Z,10.60
2023-03-24T01:51:47.700Z,10.60
2023-03-24T01:54:20.369Z,10.60
2023-03-24T01:56:57.185Z,10.50
2023-03-24T01:59:31.121Z,10.50
2023-03-24T02:02:04.160Z,10.50
2023-03-24T02:04:35.554Z,10.60
2023-03-24T02:07:17.056Z,10.60
2023-03-24T02:09:45.674Z,10.60
2023-03-24T02:12:14.766Z,10.60
2023-03-24T02:14:43.316Z,10.60
2023-03-24T02:17:33.658Z,10.60
2023-03-24T02:20:33.507Z,10.60
2023-03-24T02:23:44.950Z,10.60
2023-03-24T02:26:46.555Z,10.60
2023-03-24T02:29:47.347Z,10.70
2023-03-24T02:32:37.446Z,10.70
2023-03-24T02:35:38.561Z,10.70
2023-03-24T02:38:41.809Z,10.70
2023-03-24T02:41:18.879Z,10.80
2023-03-24T02:43:58.207Z,10.80
2023-03-24T02:46:34.925Z,10.80
2023-03-24T02:49:17.530Z,10.90
2023-03-24T02:51:53.625Z,10.80
2023-03-24T02:54:31.751Z,10.80
2023-03-24T02:57:08.022Z,10.70
2023-03-24T02:59:41.817Z,10.60
2023-03-24T03:02:14.120Z,10.60
2023-03-24T03:04:50.281Z,10.50
2023-03-24T03:07:23.058Z,10.50
2023-03-24T03:09:57.530Z,10.50
2023-03-24T03:12:32.984Z,10.50
2023-03-24T03:15:05.627Z,10.40
2023-03-24T03:17:40.164Z,11.50
2023-03-24T03:20:14.540Z,10.50
2023-03-24T03:22:49.846Z,10.50
2023-03-24T03:25:23.256Z,10.50
2023-03-24T03:27:57.154Z,10.40
2023-03-24T03:30:30.051Z,10.40
2023-03-24T03:33:03.821Z,10.50
2023-03-24T03:35:37.810Z,10.50
2023-03-24T03:38:15.844Z,10.50
2023-03-24T03:40:52.204Z,10.50
2023-03-24T03:43:24.137Z,10.50
2023-03-24T03:45:52.662Z,10.50
2023-03-24T03:48:21.673Z,10.50
2023-03-24T03:50:57.359Z,10.50
2023-03-24T03:53:40.792Z,10.50
2023-03-24T03:56:10.192Z,10.60
2023-03-24T03:58:42.827Z,10.60
2023-03-24T04:01:15.364Z,10.60
2023-03-24T04:04:11.256Z,10.70
2023-03-24T04:06:45.309Z,10.70
2023-03-24T04:09:31.693Z,10.70
2023-03-24T04:12:26.117Z,10.70
2023-03-24T04:15:13.968Z,10.70
2023-03-24T04:17:59.121Z,10.80
2023-03-24T04:20:34.494Z,10.80
2023-03-24T04:23:09.813Z,10.80
2023-03-24T04:25:50.031Z,10.80
2023-03-24T04:28:26.764Z,10.70
2023-03-24T04:31:04.751Z,10.80
2023-03-24T04:33:40.511Z,10.80
2023-03-24T04:36:19.149Z,10.80
2023-03-24T04:38:55.178Z,10.80
2023-03-24T04:41:25.836Z,10.80
2023-03-24T04:43:57.617Z,10.90
2023-03-24T04:46:27.601Z,10.90
2023-03-24T04:48:56.238Z,11.00
2023-03-24T04:51:25.264Z,11.00
2023-03-24T04:53:53.675Z,11.00
2023-03-24T04:56:32.589Z,11.10
2023-03-24T04:59:01.216Z,11.10
2023-03-24T05:01:31.159Z,11.10
2023-03-24T05:04:01.256Z,11.10
2023-03-24T05:06:29.865Z,11.20
2023-03-24T05:08:59.414Z,11.20
2023-03-24T05:11:28.286Z,11.20
2023-03-24T05:13:57.478Z,11.20
2023-03-24T05:16:25.995Z,11.30
2023-03-24T05:18:55.550Z,11.30
2023-03-24T05:21:23.689Z,11.30
2023-03-24T05:23:51.712Z,11.40
2023-03-24T05:26:19.763Z,11.40
2023-03-24T05:28:47.840Z,11.50
2023-03-24T05:31:16.125Z,11.50
2023-03-24T05:33:44.262Z,11.50
2023-03-24T05:36:14.176Z,11.50
2023-03-24T05:38:42.366Z,11.60
2023-03-24T05:41:10.464Z,11.60
2023-03-24T05:43:38.524Z,11.90
2023-03-24T05:46:07.060Z,11.60
2023-03-24T05:48:35.408Z,11.60
2023-03-24T05:51:03.831Z,11.60
2023-03-24T05:53:33.289Z,11.60
2023-03-24T05:56:01.421Z,11.60
2023-03-24T05:58:29.496Z,11.60
2023-03-24T06:00:57.650Z,11.60
2023-03-24T06:03:25.839Z,11.70
2023-03-24T06:05:54.128Z,11.70
2023-03-24T06:08:22.276Z,11.70
2023-03-24T06:10:53.499Z,11.70
2023-03-24T06:13:21.613Z,11.70
2023-03-24T06:15:49.708Z,11.80
2023-03-24T06:18:17.861Z,11.80
2023-03-24T06:20:46.059Z,11.80
2023-03-24T06:23:15.399Z,11.80
2023-03-24T06:25:44.683Z,11.90
2023-03-24T06:28:14.602Z,12.00
2023-03-24T06:30:46.975Z,12.00
2023-03-24T06:33:16.138Z,12.10
2023-03-24T06:35:44.517Z,12.10
2023-03-24T06:38:13.078Z,12.20
2023-03-24T06:40:41.187Z,12.20
2023-03-24T06:43:09.232Z,12.30
2023-03-24T06:45:39.543Z,12.30
2023-03-24T06:48:07.927Z,12.30
2023-03-24T06:50:38.003Z,12.40
2023-03-24T06:53:07.080Z,12.50
2023-03-24T06:55:35.398Z,12.50
2023-03-24T06:58:03.629Z,12.50
2023-03-24T07:00:31.907Z,12.60
2023-03-24T07:03:02.507Z,12.60
2023-03-24T07:05:30.814Z,12.70
2023-03-24T07:10:30.421Z,12.70
2023-03-24T07:12:59.655Z,12.70
2023-03-24T07:15:27.889Z,12.70
2023-03-24T07:17:56.041Z,12.80
2023-03-24T07:20:25.926Z,12.80
2023-03-24T07:22:57.498Z,12.80
2023-03-24T07:25:26.526Z,12.90
2023-03-24T07:27:55.709Z,13.00
2023-03-24T07:30:33.510Z,13.10
2023-03-24T07:33:10.177Z,13.40
2023-03-24T07:35:39.745Z,13.70
2023-03-24T07:38:07.927Z,13.90
2023-03-24T07:40:36.190Z,14.00
2023-03-24T07:43:06.633Z,13.90
2023-03-24T07:45:35.020Z,13.80
2023-03-24T07:48:03.314Z,13.70
2023-03-24T07:50:32.546Z,13.60
2023-03-24T07:53:02.088Z,13.70
2023-03-24T07:55:30.214Z,13.70
2023-03-24T07:57:58.275Z,13.40
2023-03-24T08:00:26.674Z,13.40
2023-03-24T08:02:55.771Z,13.30
2023-03-24T08:05:25.078Z,13.20
2023-03-24T08:07:54.469Z,13.20
2023-03-24T08:10:27.086Z,13.00
2023-03-24T08:12:56.397Z,13.00
2023-03-24T08:15:24.918Z,12.90
2023-03-24T08:17:53.188Z,12.80
2023-03-24T08:20:24.690Z,12.80
2023-03-24T08:22:54.392Z,12.70
2023-03-24T08:25:25.950Z,12.70
2023-03-24T08:27:54.396Z,12.70
2023-03-24T08:30:24.169Z,12.70
2023-03-24T08:32:54.931Z,12.60
2023-03-24T08:35:25.783Z,12.60
2023-03-24T08:37:54.279Z,12.60
2023-03-24T08:40:25.430Z,12.70
2023-03-24T08:42:56.139Z,12.70
2023-03-24T08:45:27.551Z,12.70
2023-03-24T08:47:58.534Z,12.70
2023-03-24T08:50:29.861Z,12.70
2023-03-24T08:52:58.689Z,13.10
2023-03-24T08:55:28.688Z,12.70
2023-03-24T08:57:57.360Z,12.80
2023-03-24T09:00:26.115Z,13.00
2023-03-24T09:02:56.315Z,13.10
2023-03-24T09:05:40.920Z,13.20
2023-03-24T09:08:12.849Z,13.20
2023-03-24T09:10:43.280Z,13.40
2023-03-24T09:13:11.713Z,12.20
2023-03-24T09:15:40.423Z,13.50
2023-03-24T09:18:08.655Z,13.40
2023-03-24T09:20:36.974Z,13.40
2023-03-24T09:23:05.186Z,13.30
2023-03-24T09:25:33.360Z,13.30
2023-03-24T09:28:03.372Z,13.30
2023-03-24T09:30:33.924Z,13.30
2023-03-24T09:33:03.507Z,13.40
2023-03-24T09:35:32.000Z,13.50
2023-03-24T09:38:00.497Z,13.70
2023-03-24T09:40:30.885Z,13.90
2023-03-24T09:43:05.345Z,14.30
2023-03-24T09:45:38.670Z,14.40
2023-03-24T09:48:13.668Z,14.70
2023-03-24T09:50:49.928Z,15.10
2023-03-24T09:53:29.421Z,15.40
2023-03-24T09:56:14.593Z,15.60
2023-03-24T09:58:44.992Z,15.80
2023-03-24T10:01:17.588Z,15.90
2023-03-24T10:03:47.025Z,16.10
2023-03-24T10:06:21.860Z,16.10
2023-03-24T10:08:55.449Z,15.90
2023-03-24T10:11:31.092Z,15.90
2023-03-24T10:14:14.116Z,15.90
2023-03-24T10:16:49.643Z,15.80
2023-03-24T10:19:27.329Z,15.60
2023-03-24T10:22:04.195Z,15.50
2023-03-24T10:24:44.686Z,15.30
2023-03-24T10:27:18.868Z,15.20
2023-03-24T10:29:50.766Z,15.10
2023-03-24T10:32:22.385Z,15.10
2023-03-24T10:34:57.491Z,15.20
2023-03-24T10:37:25.946Z,15.50
2023-03-24T10:39:54.313Z,15.90
2023-03-24T10:42:27.510Z,16.40
2023-03-24T10:44:57.627Z,16.70
2023-03-24T10:47:28.982Z,16.90
2023-03-24T10:50:11.938Z,16.80
2023-03-24T10:52:43.810Z,16.70
2023-03-24T10:55:18.982Z,16.50
2023-03-24T10:57:50.467Z,16.30
2023-03-24T11:00:27.030Z,16.10
2023-03-24T11:02:58.946Z,16.20
2023-03-24T11:05:33.293Z,16.00
2023-03-24T11:08:16.173Z,16.20
2023-03-24T11:10:44.573Z,16.30
2023-03-24T11:13:19.452Z,16.30
2023-03-24T11:16:12.005Z,16.20
2023-03-24T11:18:43.084Z,16.40
2023-03-24T11:21:11.764Z,16.60
2023-03-24T11:23:42.898Z,16.80
2023-03-24T11:26:16.062Z,17.10
2023-03-24T11:28:48.167Z,17.10
2023-03-24T11:31:25.373Z,17.30
2023-03-24T11:33:58.723Z,17.00
2023-03-24T11:36:52.038Z,16.80
2023-03-24T11:39:23.988Z,16.60
2023-03-24T11:42:02.082Z,16.90
2023-03-24T11:44:33.702Z,17.10
2023-03-24T11:47:07.377Z,17.20
2023-03-24T11:49:41.149Z,17.50
2023-03-24T11:52:25.509Z,17.70
2023-03-24T11:54:53.934Z,18.20
2023-03-24T11:57:37.789Z,18.50
2023-03-24T12:00:16.247Z,18.40
2023-03-24T12:03:06.295Z,18.20
2023-03-24T12:05:41.166Z,18.30
2023-03-24T12:08:30.145Z,18.20
2023-03-24T12:11:10.266Z,18.20
2023-03-24T12:13:42.038Z,18.10
2023-03-24T12:16:27.176Z,18.00
2023-03-24T12:19:39.258Z,18.10
2023-03-24T12:22:18.203Z,18.10
2023-03-24T12:25:06.446Z,18.10
2023-03-24T12:27:44.050Z,17.80
2023-03-24T12:30:20.383Z,17.90
2023-03-24T12:33:00.445Z,17.90
2023-03-24T12:35:55.227Z,17.70
2023-03-24T12:38:38.247Z,17.40
2023-03-24T12:41:32.326Z,17.20
2023-03-24T12:44:25.171Z,16.80
2023-03-24T12:47:03.446Z,16.80
2023-03-24T12:49:56.891Z,16.80
2023-03-24T12:52:40.269Z,16.70
2023-03-24T12:55:14.356Z,16.60
2023-03-24T12:57:47.177Z,16.40
2023-03-24T13:00:23.339Z,16.30
2023-03-24T13:02:55.929Z,16.30
2023-03-24T13:05:30.589Z,16.20
2023-03-24T13:08:04.591Z,16.00
2023-03-24T13:10:40.533Z,16.00
2023-03-24T13:13:14.986Z,15.90
2023-03-24T13:15:48.128Z,15.80
2023-03-24T13:18:31.269Z,15.80
2023-03-24T13:21:05.721Z,15.50
2023-03-24T13:23:46.332Z,15.30
2023-03-24T13:26:26.911Z,15.20
2023-03-24T13:29:05.895Z,15.20
2023-03-24T13:31:40.392Z,15.30
2023-03-24T13:34:23.660Z,15.40
2023-03-24T13:36:55.919Z,15.40
2023-03-24T13:39:28.073Z,15.60
2023-03-24T13:41:58.824Z,15.60
2023-03-24T13:44:31.611Z,15.70
2023-03-24T13:47:18.108Z,15.70
2023-03-24T13:49:56.725Z,15.70
2023-03-24T13:52:30.203Z,15.60
2023-03-24T13:55:02.694Z,15.60
2023-03-24T13:57:31.676Z,15.60
2023-03-24T14:00:11.441Z,15.60
2023-03-24T14:02:46.972Z,15.60
2023-03-24T14:05:34.476Z,15.50
2023-03-24T14:08:15.798Z,15.50
2023-03-24T14:10:47.268Z,15.50
2023-03-24T14:13:38.968Z,15.50
2023-03-24T14:16:53.204Z,15.50
2023-03-24T14:19:31.234Z,15.50
2023-03-24T14:22:09.292Z,15.40
2023-03-24T14:24:38.218Z,15.20
2023-03-24T14:27:31.751Z,15.20
2023-03-24T14:30:02.151Z,15.00
2023-03-24T14:32:31.652Z,14.90
2023-03-24T14:35:01.262Z,14.90
2023-03-24T14:37:31.215Z,15.00
2023-03-24T14:40:01.013Z,14.90
2023-03-24T14:42:56.691Z,15.10
2023-03-24T14:45:58.769Z,15.30
2023-03-24T14:48:36.073Z,15.40
2023-03-24T14:51:13.720Z,15.40
2023-03-24T14:53:42.689Z,15.40
2023-03-24T14:56:17.782Z,15.40
2023-03-24T14:58:53.018Z,15.50
2023-03-24T15:01:23.366Z,15.50
2023-03-24T15:04:01.778Z,15.60
2023-03-24T15:06:30.209Z,15.80
2023-03-24T15:09:01.263Z,15.80
2023-03-24T15:11:33.642Z,15.80
2023-03-24T15:14:04.847Z,15.80
2023-03-24T15:16:35.621Z,15.80
2023-03-24T15:19:09.644Z,15.80
2023-03-24T15:21:39.809Z,15.90
2023-03-24T15:24:27.771Z,16.00
2023-03-24T15:27:08.362Z,16.00
2023-03-24T15:29:40.281Z,16.00
2023-03-24T15:32:15.531Z,16.00
2023-03-24T15:34:50.644Z,16.00
2023-03-24T15:37:24.568Z,16.00
2023-03-24T15:40:01.938Z,16.00
2023-03-24T15:42:42.899Z,16.00
2023-03-24T15:45:20.849Z,15.90
2023-03-24T15:47:54.037Z,15.70
2023-03-24T15:50:33.707Z,15.60
2023-03-24T15:53:04.295Z,15.40
2023-03-24T15:55:36.002Z,15.30
2023-03-24T15:58:23.850Z,15.20
2023-03-24T16:00:55.079Z,15.00
2023-03-24T16:03:26.689Z,14.90
2023-03-24T16:05:56.994Z,14.90
2023-03-24T16:08:30.854Z,14.80
2023-03-24T16:11:01.397Z,14.90
2023-03-24T16:13:29.680Z,14.80
2023-03-24T16:16:01.565Z,14.80
2023-03-24T16:18:33.257Z,14.70
2023-03-24T16:21:13.460Z,14.60
2023-03-24T16:23:43.580Z,14.50
2023-03-24T16:26:14.488Z,14.40
2023-03-24T16:28:42.748Z,14.30
2023-03-24T16:31:21.912Z,14.30
2023-03-24T16:33:50.814Z,14.30
2023-03-24T16:36:22.078Z,14.20
2023-03-24T16:38:51.076Z,14.20
2023-03-24T16:41:19.155Z,14.10
2023-03-24T16:43:47.820Z,14.10
2023-03-24T16:46:19.787Z,14.10
2023-03-24T16:48:48.101Z,14.10
2023-03-24T16:51:17.828Z,14.10
2023-03-24T16:53:47.460Z,14.10
2023-03-24T16:56:17.522Z,14.00
2023-03-24T16:58:47.958Z,14.00
2023-03-24T17:01:26.545Z,13.90
2023-03-24T17:03:55.804Z,13.90
2023-03-24T17:06:25.216Z,13.80
2023-03-24T17:08:53.491Z,13.70
2023-03-24T17:11:27.816Z,13.60
2023-03-24T17:13:57.297Z,13.50
2023-03-24T17:16:27.796Z,13.50
2023-03-24T17:18:56.062Z,13.40
2023-03-24T17:21:24.654Z,13.40
2023-03-24T17:23:55.027Z,13.30
2023-03-24T17:26:23.824Z,13.10
2023-03-24T17:28:52.136Z,13.00
2023-03-24T17:31:20.379Z,12.90
2023-03-24T17:33:49.893Z,12.80
2023-03-24T17:36:18.510Z,12.70
2023-03-24T17:38:47.990Z,12.60
2023-03-24T17:41:16.132Z,12.50
2023-03-24T17:43:47.092Z,12.40
2023-03-24T17:46:15.671Z,12.30
2023-03-24T17:48:46.296Z,12.20
2023-03-24T17:51:16.746Z,12.20
2023-03-24T17:53:45.239Z,12.10
2023-03-24T17:56:13.432Z,12.10
2023-03-24T17:58:41.697Z,12.00
2023-03-24T18:01:10.788Z,12.10
2023-03-24T18:03:39.091Z,12.10
2023-03-24T18:06:08.998Z,12.00
2023-03-24T18:08:39.379Z,12.00
2023-03-24T18:11:09.587Z,12.00
2023-03-24T18:13:38.149Z,11.90
2023-03-24T18:16:20.005Z,11.90
2023-03-24T18:18:50.236Z,11.80
2023-03-24T18:21:18.631Z,11.70
2023-03-24T18:23:48.650Z,11.70
2023-03-24T18:26:18.651Z,11.60
2023-03-24T18:28:47.163Z,11.60
2023-03-24T18:31:18.852Z,11.60
2023-03-24T18:33:48.147Z,11.60
2023-03-24T18:36:21.036Z,11.50
2023-03-24T18:38:50.864Z,11.40
2023-03-24T18:41:19.232Z,11.40
2023-03-24T18:43:48.463Z,11.30
2023-03-24T18:46:17.168Z,11.30
2023-03-24T18:48:46.614Z,11.20
2023-03-24T18:51:15.499Z,11.20
2023-03-24T18:53:43.614Z,11.10
2023-03-24T18:56:13.490Z,11.00
2023-03-24T18:58:43.284Z,10.90
2023-03-24T19:01:13.430Z,9.70
2023-03-24T19:03:44.130Z,11.20
2023-03-24T19:06:14.501Z,10.90
2023-03-24T19:08:45.810Z,10.90
2023-03-24T19:11:16.814Z,10.80
2023-03-24T19:13:47.304Z,10.80
2023-03-24T19:16:15.550Z,10.70
2023-03-24T19:18:44.073Z,10.70
2023-03-24T19:21:13.782Z,10.60
2023-03-24T19:23:42.003Z,10.60
2023-03-24T19:26:10.124Z,10.70
2023-03-24T19:28:39.601Z,10.70
2023-03-24T19:31:10.702Z,10.90
2023-03-24T19:33:39.534Z,11.00
2023-03-24T19:36:08.968Z,11.00
2023-03-24T19:38:38.639Z,11.00
2023-03-24T19:41:08.297Z,10.90
2023-03-24T19:43:36.978Z,10.80
2023-03-24T19:46:07.275Z,10.70
2023-03-24T19:48:36.425Z,10.70
2023-03-24T19:51:04.995Z,10.50
2023-03-24T19:53:33.306Z,10.40
2023-03-24T19:56:02.059Z,10.30
2023-03-24T19:58:30.376Z,10.30
2023-03-24T20:00:58.564Z,10.30
2023-03-24T20:03:28.960Z,10.40
2023-03-24T20:05:57.239Z,10.40
2023-03-24T20:08:26.151Z,10.40
2023-03-24T20:10:54.394Z,10.40
2023-03-24T20:13:24.116Z,10.40
2023-03-24T20:15:52.702Z,10.30
2023-03-24T20:18:21.217Z,10.40
2023-03-24T20:20:51.196Z,10.30
2023-03-24T20:23:19.307Z,10.30
2023-03-24T20:25:47.579Z,10.30
2023-03-24T20:28:15.933Z,10.60
2023-03-24T20:30:45.151Z,10.30
2023-03-24T20:33:13.780Z,10.30
2023-03-24T20:35:41.968Z,10.30
2023-03-24T20:38:11.574Z,10.20
2023-03-24T20:40:39.668Z,10.10
2023-03-24T20:43:07.771Z,11.30
2023-03-24T20:45:36.223Z,10.10
2023-03-24T20:48:14.747Z,10.10
2023-03-24T20:50:43.404Z,10.10
2023-03-24T20:53:12.834Z,10.10
2023-03-24T20:55:41.250Z,10.00
2023-03-24T20:58:10.500Z,10.00
2023-03-24T21:00:41.901Z,10.00
2023-03-24T21:03:11.526Z,9.90
2023-03-24T21:05:40.181Z,9.90
2023-03-24T21:08:08.319Z,9.90
2023-03-24T21:10:38.368Z,9.80
2023-03-24T21:13:08.604Z,9.80
2023-03-24T21:15:42.343Z,9.70
2023-03-24T21:18:10.418Z,9.70
2023-03-24T21:20:38.654Z,9.70
2023-03-24T21:23:08.041Z,9.30
2023-03-24T21:25:38.536Z,9.80
2023-03-24T21:28:06.697Z,10.80
2023-03-24T21:30:34.825Z,9.80
2023-03-24T21:33:03.323Z,9.80
2023-03-24T21:35:31.507Z,9.80
2023-03-24T21:38:01.153Z,9.90
2023-03-24T21:40:29.210Z,9.90
2023-03-24T21:43:04.426Z,9.90
2023-03-24T21:45:35.956Z,9.90
2023-03-24T21:48:06.750Z,9.90
2023-03-24T21:50:38.774Z,9.80
2023-03-24T21:53:14.770Z,9.80
2023-03-24T21:55:43.003Z,9.70
2023-03-24T21:58:12.447Z,9.70
2023-03-24T22:00:41.055Z,9.60
2023-03-24T22:03:09.350Z,9.60
2023-03-24T22:05:40.011Z,9.50
2023-03-24T22:08:08.234Z,9.40
2023-03-24T22:10:36.999Z,9.50
2023-03-24T22:13:05.586Z,9.20
2023-03-24T22:15:36.758Z,9.20
2023-03-24T22:18:05.357Z,9.10
2023-03-24T22:20:33.592Z,9.10
2023-03-24T22:23:03.501Z,9.00
2023-03-24T22:25:32.116Z,9.00
2023-03-24T22:28:00.370Z,8.90
2023-03-24T22:30:28.763Z,8.80
2023-03-24T22:32:58.561Z,7.80
2023-03-24T22:35:29.366Z,8.70
2023-03-24T22:37:57.798Z,8.70
2023-03-24T22:40:26.058Z,8.70
2023-03-24T22:42:54.442Z,8.70
2023-03-24T22:45:22.633Z,8.70
2023-03-24T22:47:50.840Z,8.60
2023-03-24T22:50:20.496Z,8.60
2023-03-24T22:52:48.814Z,8.60
2023-03-24T22:55:16.988Z,8.60
2023-03-24T22:57:45.011Z,8.60
2023-03-24T23:00:14.670Z,8.60
2023-03-24T23:02:42.864Z,8.60
2023-03-24T23:05:11.179Z,8.60
2023-03-24T23:07:42.087Z,8.50
2023-03-24T23:10:11.507Z,8.40
2023-03-24T23:12:40.126Z,8.40
2023-03-24T23:15:10.738Z,8.30
2023-03-24T23:17:38.826Z,8.30
2023-03-24T23:20:08.329Z,8.30
2023-03-24T23:22:38.267Z,8.40
2023-03-24T23:25:08.796Z,8.40
2023-03-24T23:27:38.086Z,8.40
2023-03-24T23:30:08.411Z,8.40
2023-03-24T23:32:38.227Z,8.30
2023-03-24T23:35:09.376Z,8.50
2023-03-24T23:37:39.354Z,8.50
2023-03-24T23:40:13.026Z,8.60
2023-03-24T23:42:42.243Z,8.60
2023-03-24T23:45:14.434Z,8.50
2023-03-24T23:47:44.969Z,8.40
2023-03-24T23:50:13.728Z,8.30
2023-03-24T23:52:43.885Z,8.20
2023-03-24T23:55:14.271Z,8.20
2023-03-24T23:57:43.240Z,8.10
